Time,TemperatureF,DewpointF,PressureIn,WindDirection,WindDirectionDegrees,WindSpeedMPH,WindSpeedGustMPH,Humidity,HourlyPrecipIn,Conditions,Clouds,dailyrainin,SoftwareType,DateUTC
2013-03-19 00:03:00,32.0,32.0,-100.00,ENE,73,12.0,19.0,94,0.00,,,-99.99,,2013-03-19 04:03:00,
2013-03-19 00:13:00,35.0,32.0,-100.00,ENE,70,11.0,19.0,95,0.00,,,-99.99,,2013-03-19 04:13:00,
2013-03-19 00:23:00,35.0,32.0,-100.00,ENE,63,11.0,19.0,90,0.00,,,-99.99,,2013-03-19 04:23:00,
2013-03-19 00:34:00,34.0,30.0,-100.00,ENE,63,14.0,22.0,86,0.00,,,-99.99,,2013-03-19 04:34:00,
2013-03-19 00:43:00,32.0,28.0,-100.00,East,79,15.0,22.0,84,0.00,,,-99.99,,2013-03-19 04:43:00,
2013-03-19 00:52:00,35.0,32.0,-100.00,ENE,72,11.0,22.0,86,0.00,,,-99.99,,2013-03-19 04:52:00,
2013-03-19 01:02:00,34.0,28.0,-100.00,ENE,76,16.0,22.0,78,0.00,,,-99.99,,2013-03-19 05:02:00,
2013-03-19 01:12:00,33.0,28.0,-100.00,ENE,72,12.0,22.0,81,0.00,,,-99.99,,2013-03-19 05:12:00,
2013-03-19 01:22:00,33.0,28.0,-100.00,ENE,76,14.0,14.0,80,0.00,,,-99.99,,2013-03-19 05:22:00,
2013-03-19 01:32:00,33.0,27.0,-100.00,East,81,12.0,14.0,77,0.00,,,-99.99,,2013-03-19 05:32:00,
2013-03-19 01:43:00,33.0,28.0,-100.00,East,81,11.0,14.0,78,0.00,,,-99.99,,2013-03-19 05:43:00,
2013-03-19 01:52:00,33.0,25.0,-100.00,ENE,70,11.0,14.0,71,0.00,,,-99.99,,2013-03-19 05:52:00,
2013-03-19 02:02:00,32.0,25.0,-100.00,ENE,63,9.0,14.0,69,0.00,,,-99.99,,2013-03-19 06:02:00,
2013-03-19 02:12:00,32.0,25.0,-100.00,ENE,76,7.0,14.0,72,0.00,,,-99.99,,2013-03-19 06:12:00,
2013-03-19 02:22:00,32.0,27.0,-100.00,ENE,63,9.0,14.0,75,0.00,,,-99.99,,2013-03-19 06:22:00,
2013-03-19 02:32:00,32.0,27.0,-100.00,ENE,69,11.0,14.0,78,0.00,,,-99.99,,2013-03-19 06:32:00,
2013-03-19 02:42:00,32.0,27.0,-100.00,ENE,73,9.0,14.0,75,0.00,,,-99.99,,2013-03-19 06:42:00,
2013-03-19 02:52:00,32.0,25.0,-100.00,East,80,10.0,14.0,71,0.00,,,-99.99,,2013-03-19 06:52:00,
2013-03-19 03:02:00,32.0,25.0,-100.00,ENE,72,8.0,14.0,69,0.00,,,-99.99,,2013-03-19 07:02:00,
2013-03-19 03:12:00,32.0,25.0,-100.00,East,81,7.0,14.0,71,0.00,,,-99.99,,2013-03-19 07:12:00,
2013-03-19 03:22:00,32.0,25.0,-100.00,ENE,63,5.0,14.0,72,0.00,,,-99.99,,2013-03-19 07:22:00,
2013-03-19 03:32:00,32.0,25.0,-100.00,ENE,72,6.0,14.0,73,0.00,,,-99.99,,2013-03-19 07:32:00,
2013-03-19 03:42:00,32.0,25.0,-100.00,ENE,70,6.0,14.0,71,0.00,,,-99.99,,2013-03-19 07:42:00,
2013-03-19 03:52:00,32.0,25.0,-100.00,ENE,70,6.0,14.0,69,0.00,,,-99.99,,2013-03-19 07:52:00,
2013-03-19 04:03:00,32.0,25.0,-100.00,East,80,6.0,14.0,71,0.00,,,-99.99,,2013-03-19 08:03:00,
2013-03-19 04:12:00,32.0,25.0,-100.00,ENE,70,6.0,14.0,69,0.00,,,-99.99,,2013-03-19 08:12:00,
2013-03-19 04:22:00,32.0,25.0,-100.00,ENE,64,7.0,14.0,71,0.00,,,-99.99,,2013-03-19 08:22:00,
2013-03-19 04:32:00,32.0,25.0,-100.00,East,81,6.0,14.0,72,0.00,,,-99.99,,2013-03-19 08:32:00,
2013-03-19 04:42:00,32.0,25.0,-100.00,ENE,63,7.0,14.0,72,0.00,,,-99.99,,2013-03-19 08:42:00,
2013-03-19 04:52:00,32.0,25.0,-100.00,ENE,72,11.0,14.0,73,0.00,,,-99.99,,2013-03-19 08:52:00,
2013-03-19 05:03:00,32.0,25.0,-100.00,East,81,9.0,14.0,72,0.00,,,-99.99,,2013-03-19 09:03:00,
2013-03-19 05:12:00,32.0,27.0,-100.00,ENE,67,9.0,14.0,75,0.00,,,-99.99,,2013-03-19 09:12:00,
2013-03-19 05:23:00,31.0,25.0,-100.00,ENE,76,8.0,14.0,76,0.00,,,-99.99,,2013-03-19 09:23:00,
2013-03-19 05:33:00,33.0,27.0,-100.00,ENE,64,9.0,14.0,76,0.00,,,-99.99,,2013-03-19 09:33:00,
2013-03-19 05:43:00,32.0,27.0,-100.00,ENE,72,7.0,14.0,77,0.00,,,-99.99,,2013-03-19 09:43:00,
2013-03-19 05:53:00,33.0,28.0,-100.00,East,81,7.0,14.0,78,0.00,,,-99.99,,2013-03-19 09:53:00,
2013-03-19 06:04:00,32.0,27.0,-100.00,ENE,72,9.0,14.0,77,0.00,,,-99.99,,2013-03-19 10:04:00,
2013-03-19 06:13:00,32.0,27.0,-100.00,ENE,76,8.0,14.0,77,0.00,,,-99.99,,2013-03-19 10:13:00,
2013-03-19 06:23:00,32.0,27.0,-100.00,ENE,63,9.0,14.0,77,0.00,,,-99.99,,2013-03-19 10:23:00,
2013-03-19 06:33:00,36.0,30.0,-100.00,ENE,63,9.0,14.0,78,0.00,,,-99.99,,2013-03-19 10:33:00,
2013-03-19 06:42:00,32.0,27.0,-100.00,ENE,72,11.0,14.0,77,0.00,,,-99.99,,2013-03-19 10:42:00,
2013-03-19 06:52:00,34.0,28.0,-100.00,ENE,73,11.0,14.0,77,0.00,,,-99.99,,2013-03-19 10:52:00,
2013-03-19 07:03:00,32.0,27.0,-100.00,ENE,70,11.0,14.0,75,0.00,,,-99.99,,2013-03-19 11:03:00,
2013-03-19 07:12:00,32.0,27.0,-100.00,ENE,63,7.0,14.0,77,0.00,,,-99.99,,2013-03-19 11:12:00,
2013-03-19 07:22:00,32.0,27.0,-100.00,East,81,7.0,14.0,78,0.00,,,-99.99,,2013-03-19 11:22:00,
2013-03-19 07:33:00,31.0,27.0,-100.00,East,81,8.0,14.0,80,0.00,,,-99.99,,2013-03-19 11:33:00,
2013-03-19 07:43:00,32.0,27.0,-100.00,East,81,11.0,14.0,80,0.00,,,-99.99,,2013-03-19 11:43:00,
2013-03-19 07:52:00,32.0,27.0,-100.00,ENE,70,10.0,14.0,78,0.00,,,-99.99,,2013-03-19 11:52:00,
2013-03-19 08:02:00,31.0,27.0,-100.00,ENE,73,11.0,14.0,78,0.00,,,-99.99,,2013-03-19 12:02:00,
2013-03-19 08:12:00,32.0,27.0,-100.00,ENE,63,10.0,14.0,78,0.00,,,-99.99,,2013-03-19 12:12:00,
2013-03-19 08:22:00,31.0,27.0,-100.00,East,81,8.0,14.0,78,0.00,,,-99.99,,2013-03-19 12:22:00,
2013-03-19 08:33:00,30.0,25.0,-100.00,ENE,72,9.0,14.0,76,0.00,,,-99.99,,2013-03-19 12:33:00,
2013-03-19 08:43:00,30.0,23.0,-100.00,ENE,70,11.0,14.0,73,0.00,,,-99.99,,2013-03-19 12:43:00,
2013-03-19 08:52:00,30.0,23.0,-100.00,ENE,72,11.0,14.0,73,0.00,,,-99.99,,2013-03-19 12:52:00,
2013-03-19 09:02:00,29.0,23.0,-100.00,ENE,67,9.0,14.0,75,0.00,,,-99.99,,2013-03-19 13:02:00,
2013-03-19 09:12:00,29.0,21.0,-100.00,ENE,76,13.0,17.0,71,0.00,,,-99.99,,2013-03-19 13:12:00,
2013-03-19 09:22:00,29.0,19.0,-100.00,East,79,12.0,17.0,67,0.00,,,-99.99,,2013-03-19 13:22:00,
2013-03-19 09:33:00,29.0,21.0,-100.00,East,81,11.0,17.0,69,0.00,,,-99.99,,2013-03-19 13:33:00,
2013-03-19 09:42:00,29.0,21.0,-100.00,East,81,11.0,17.0,69,0.00,,,-99.99,,2013-03-19 13:42:00,
2013-03-19 09:52:00,29.0,21.0,-100.00,ENE,63,11.0,17.0,71,0.00,,,-99.99,,2013-03-19 13:52:00,
2013-03-19 10:02:00,28.0,19.0,-100.00,East,81,10.0,17.0,68,0.00,,,-99.99,,2013-03-19 14:02:00,
2013-03-19 10:12:00,29.0,19.0,-100.00,ENE,72,13.0,17.0,67,0.00,,,-99.99,,2013-03-19 14:12:00,
2013-03-19 10:22:00,28.0,19.0,-100.00,ENE,70,14.0,17.0,64,0.00,,,-99.99,,2013-03-19 14:22:00,
2013-03-19 10:32:00,29.0,21.0,-100.00,ENE,72,12.0,17.0,66,0.00,,,-99.99,,2013-03-19 14:32:00,
2013-03-19 10:42:00,29.0,19.0,-100.00,ENE,72,14.0,21.0,64,0.00,,,-99.99,,2013-03-19 14:42:00,
2013-03-19 10:52:00,28.0,19.0,-100.00,ENE,72,14.0,21.0,64,0.00,,,-99.99,,2013-03-19 14:52:00,
2013-03-19 11:02:00,29.0,19.0,-100.00,ENE,76,13.0,21.0,63,0.00,,,-99.99,,2013-03-19 15:02:00,
2013-03-19 11:12:00,28.0,18.0,-100.00,ENE,73,13.0,21.0,64,0.00,,,-99.99,,2013-03-19 15:12:00,
2013-03-19 11:23:00,28.0,18.0,-100.00,ENE,76,10.0,21.0,62,0.00,,,-99.99,,2013-03-19 15:23:00,
2013-03-19 11:34:00,28.0,18.0,-100.00,ENE,77,12.0,21.0,64,0.00,,,-99.99,,2013-03-19 15:34:00,
2013-03-19 11:44:00,29.0,19.0,-100.00,ENE,69,12.0,21.0,62,0.00,,,-99.99,,2013-03-19 15:44:00,
2013-03-19 11:53:00,29.0,18.0,-100.00,ENE,74,14.0,21.0,60,0.00,,,-99.99,,2013-03-19 15:53:00,
2013-03-19 12:04:00,29.0,18.0,-100.00,ENE,63,11.0,21.0,62,0.00,,,-99.99,,2013-03-19 16:04:00,
2013-03-19 12:13:00,32.0,21.0,-100.00,ENE,73,14.0,21.0,60,0.00,,,-99.99,,2013-03-19 16:13:00,
2013-03-19 12:24:00,31.0,19.0,-100.00,ENE,76,11.0,21.0,62,0.00,,,-99.99,,2013-03-19 16:24:00,
2013-03-19 12:34:00,30.0,18.0,-100.00,East,79,11.0,21.0,59,0.00,,,-99.99,,2013-03-19 16:34:00,
2013-03-19 12:44:00,30.0,19.0,-100.00,ENE,72,11.0,21.0,60,0.00,,,-99.99,,2013-03-19 16:44:00,
2013-03-19 12:54:00,31.0,18.0,-100.00,East,79,14.0,21.0,55,0.00,,,-99.99,,2013-03-19 16:54:00,
2013-03-19 13:03:00,30.0,19.0,-100.00,ENE,73,15.0,21.0,59,0.00,,,-99.99,,2013-03-19 17:03:00,
2013-03-19 13:14:00,32.0,18.0,-100.00,ENE,62,17.0,21.0,54,0.00,,,-99.99,,2013-03-19 17:14:00,
2013-03-19 13:24:00,32.0,19.0,-100.00,East,81,11.0,21.0,56,0.00,,,-99.99,,2013-03-19 17:24:00,
2013-03-19 13:34:00,32.0,18.0,-100.00,ENE,77,14.0,21.0,53,0.00,,,-99.99,,2013-03-19 17:34:00,
2013-03-19 13:44:00,32.0,18.0,-100.00,ENE,70,13.0,21.0,53,0.00,,,-99.99,,2013-03-19 17:44:00,
2013-03-19 13:53:00,33.0,18.0,-100.00,ENE,70,10.0,21.0,50,0.00,,,-99.99,,2013-03-19 17:53:00,
2013-03-19 14:03:00,34.0,16.0,-100.00,ENE,63,14.0,21.0,47,0.00,,,-99.99,,2013-03-19 18:03:00,
2013-03-19 14:14:00,34.0,18.0,-100.00,ENE,70,13.0,21.0,47,0.00,,,-99.99,,2013-03-19 18:14:00,
2013-03-19 14:23:00,-999.0,16.0,-100.00,ENE,73,13.0,21.0,47,0.00,,,-99.99,,2013-03-19 18:23:00,
2013-03-19 14:34:00,33.0,16.0,-100.00,ENE,69,11.0,21.0,47,0.00,,,-99.99,,2013-03-19 18:34:00,
2013-03-19 14:43:00,34.0,16.0,-100.00,ENE,70,12.0,21.0,45,0.00,,,-99.99,,2013-03-19 18:43:00,
2013-03-19 15:03:00,34.0,16.0,-100.00,East,81,14.0,24.0,46,0.00,,,-99.99,,2013-03-19 19:03:00,
2013-03-19 15:12:00,36.0,16.0,-100.00,ENE,63,12.0,24.0,42,0.00,,,-99.99,,2013-03-19 19:12:00,
2013-03-19 15:22:00,68.0,43.0,-100.00,ENE,70,16.0,24.0,41,0.00,,,-99.99,,2013-03-19 19:22:00,
2013-03-19 15:33:00,35.0,16.0,-100.00,ENE,73,14.0,24.0,44,0.00,,,-99.99,,2013-03-19 19:33:00,
2013-03-19 15:43:00,34.0,16.0,-100.00,ENE,72,13.0,24.0,44,0.00,,,-99.99,,2013-03-19 19:43:00,
2013-03-19 15:52:00,35.0,14.0,-100.00,ENE,72,12.0,24.0,41,0.00,,,-99.99,,2013-03-19 19:52:00,
2013-03-19 16:03:00,34.0,14.0,-100.00,East,80,13.0,24.0,41,0.00,,,-99.99,,2013-03-19 20:03:00,
2013-03-19 16:12:00,-999.0,10.0,-100.00,ENE,69,15.0,24.0,38,0.00,,,-99.99,,2013-03-19 20:12:00,
2013-03-19 16:23:00,35.0,14.0,-100.00,ENE,76,16.0,24.0,38,0.00,,,-99.99,,2013-03-19 20:23:00,
2013-03-19 16:33:00,35.0,14.0,-100.00,ENE,70,17.0,24.0,41,0.00,,,-99.99,,2013-03-19 20:33:00,
2013-03-19 16:43:00,36.0,10.0,-100.00,ENE,69,17.0,24.0,34,0.00,,,-99.99,,2013-03-19 20:43:00,
2013-03-19 16:52:00,37.0,14.0,-100.00,ENE,74,19.0,24.0,38,0.00,,,-99.99,,2013-03-19 20:52:00,
2013-03-19 17:02:00,36.0,12.0,-100.00,ENE,76,16.0,24.0,37,0.00,,,-99.99,,2013-03-19 21:02:00,
2013-03-19 17:12:00,36.0,16.0,-100.00,East,80,16.0,24.0,42,0.00,,,-99.99,,2013-03-19 21:12:00,
2013-03-19 17:23:00,36.0,16.0,-100.00,East,80,16.0,24.0,42,0.00,,,-99.99,,2013-03-19 21:23:00,
2013-03-19 17:43:00,35.0,14.0,-100.00,East,80,18.0,24.0,41,0.00,,,-99.99,,2013-03-19 21:43:00,
2013-03-19 17:53:00,37.0,12.0,-100.00,ENE,67,17.0,24.0,33,0.00,,,-99.99,,2013-03-19 21:53:00,
2013-03-19 18:03:00,36.0,14.0,-100.00,East,81,14.0,24.0,37,0.00,,,-99.99,,2013-03-19 22:03:00,
2013-03-19 18:13:00,36.0,12.0,-100.00,ENE,63,17.0,24.0,36,0.00,,,-99.99,,2013-03-19 22:13:00,
2013-03-19 18:24:00,37.0,10.0,-100.00,ENE,70,20.0,24.0,33,0.00,,,-99.99,,2013-03-19 22:24:00,
2013-03-19 18:33:00,36.0,12.0,-100.00,ENE,74,19.0,24.0,36,0.00,,,-99.99,,2013-03-19 22:33:00,
2013-03-19 18:43:00,36.0,12.0,-100.00,East,79,15.0,24.0,36,0.00,,,-99.99,,2013-03-19 22:43:00,
2013-03-19 18:53:00,36.0,9.0,-100.00,ENE,73,16.0,24.0,31,0.00,,,-99.99,,2013-03-19 22:53:00,
2013-03-19 19:03:00,35.0,10.0,-100.00,East,81,16.0,24.0,34,0.00,,,-99.99,,2013-03-19 23:03:00,
2013-03-19 19:12:00,35.0,12.0,-100.00,East,81,14.0,24.0,36,0.00,,,-99.99,,2013-03-19 23:12:00,
2013-03-19 19:22:00,36.0,10.0,-100.00,ENE,70,14.0,24.0,33,0.00,,,-99.99,,2013-03-19 23:22:00,
2013-03-19 19:33:00,36.0,10.0,-100.00,ENE,70,20.0,24.0,32,0.00,,,-99.99,,2013-03-19 23:33:00,
2013-03-19 19:43:00,34.0,10.0,-100.00,ENE,72,14.0,24.0,36,0.00,,,-99.99,,2013-03-19 23:43:00,
2013-03-19 19:52:00,36.0,12.0,-100.00,East,79,12.0,24.0,36,0.00,,,-99.99,,2013-03-19 23:52:00,
2013-03-19 20:03:00,34.0,10.0,-100.00,ENE,70,11.0,24.0,36,0.00,,,-99.99,,2013-03-20 00:03:00,
2013-03-19 20:13:00,34.0,12.0,-100.00,East,80,11.0,24.0,38,0.00,,,-99.99,,2013-03-20 00:13:00,
2013-03-19 20:22:00,34.0,14.0,-100.00,ENE,72,11.0,24.0,40,0.00,,,-99.99,,2013-03-20 00:22:00,
2013-03-19 20:33:00,33.0,12.0,-100.00,ENE,62,10.0,24.0,40,0.00,,,-99.99,,2013-03-20 00:33:00,
2013-03-19 20:42:00,33.0,12.0,-100.00,ENE,62,10.0,24.0,40,0.00,,,-99.99,,2013-03-20 00:42:00,
2013-03-19 20:52:00,33.0,12.0,-100.00,ENE,70,7.0,24.0,40,0.00,,,-99.99,,2013-03-20 00:52:00,
2013-03-19 21:03:00,33.0,14.0,-100.00,ENE,72,9.0,24.0,42,0.00,,,-99.99,,2013-03-20 01:03:00,
2013-03-19 21:12:00,33.0,14.0,-100.00,ENE,70,9.0,24.0,45,0.00,,,-99.99,,2013-03-20 01:12:00,
2013-03-19 21:23:00,32.0,14.0,-100.00,ENE,72,8.0,24.0,45,0.00,,,-99.99,,2013-03-20 01:23:00,
2013-03-19 21:32:00,32.0,14.0,-100.00,ENE,70,7.0,24.0,45,0.00,,,-99.99,,2013-03-20 01:32:00,
2013-03-19 21:42:00,32.0,14.0,-100.00,ENE,70,7.0,24.0,45,0.00,,,-99.99,,2013-03-20 01:42:00,
2013-03-19 21:52:00,32.0,14.0,-100.00,ENE,72,7.0,24.0,46,0.00,,,-99.99,,2013-03-20 01:52:00,
2013-03-19 22:02:00,32.0,14.0,-100.00,ENE,62,6.0,24.0,46,0.00,,,-99.99,,2013-03-20 02:02:00,
2013-03-19 22:12:00,32.0,14.0,-100.00,ENE,69,8.0,24.0,45,0.00,,,-99.99,,2013-03-20 02:12:00,
2013-03-19 22:22:00,32.0,14.0,-100.00,ENE,73,8.0,24.0,46,0.00,,,-99.99,,2013-03-20 02:22:00,
2013-03-19 22:32:00,32.0,14.0,-100.00,ENE,69,6.0,24.0,46,0.00,,,-99.99,,2013-03-20 02:32:00,
2013-03-19 22:42:00,32.0,14.0,-100.00,ENE,63,6.0,24.0,46,0.00,,,-99.99,,2013-03-20 02:42:00,
2013-03-19 22:52:00,32.0,14.0,-100.00,ENE,64,4.0,24.0,46,0.00,,,-99.99,,2013-03-20 02:52:00,
2013-03-19 23:02:00,32.0,14.0,-100.00,ENE,70,5.0,24.0,46,0.00,,,-99.99,,2013-03-20 03:02:00,
2013-03-19 23:12:00,31.0,16.0,-100.00,ENE,72,5.0,24.0,49,0.00,,,-99.99,,2013-03-20 03:12:00,
2013-03-19 23:22:00,31.0,14.0,-100.00,ENE,67,5.0,24.0,46,0.00,,,-99.99,,2013-03-20 03:22:00,
2013-03-19 23:34:00,31.0,14.0,-100.00,ENE,63,4.0,24.0,47,0.00,,,-99.99,,2013-03-20 03:34:00,
2013-03-19 23:43:00,31.0,14.0,-100.00,ENE,70,6.0,24.0,46,0.00,,,-99.99,,2013-03-20 03:43:00,
2013-03-19 23:53:00,31.0,14.0,-100.00,ENE,72,6.0,24.0,47,0.00,,,-99.99,,2013-03-20 03:53:00,